Cuthbert, GA (39840)

3:18 PM EST on December 10, 2016 (GMT -0500)
Leverett Pond | | Change Station

Elev 463 ft 31.93 °N, 84.52 °W | Updated 10 seconds ago

Clear
Clear
51.8 °F
Feels Like 51.8 °F
N
2.0
Wind Variable Wind from SSE

Today
High -- | Low -- °F
--% Chance of Precip.
Yesterday
High -- | Low -- °F
Precip. -- in
Pressure 30.41 in
Visibility 10.0 miles
Clouds Clear
Dew Point 21 °F
Humidity 30%
Rainfall 0.00 in
Snow Depth Not available.
7:28 AM 5:35 PM
Waxing Gibbous, 86% visible
METAR KEUF 101958Z AUTO VRB03KT 10SM CLR 13/M07 A3040 RMK AO2 SLP296 T01281072
Pressure 30.41 in
Visibility 10.0 miles
Clouds Clear
Dew Point 21 °F
Humidity 30%
Rainfall 0.00 in
Snow Depth Not available.
7:28 AM 5:35 PM
Waxing Gibbous, 86% visible
METAR KEUF 101958Z AUTO VRB03KT 10SM CLR 13/M07 A3040 RMK AO2 SLP296 T01281072

10-Day Weather Forecast

Almanac

Astronomy

Dec. 10, 2016 Rise Set
Actual Time
Civil Twilight
Nautical Twilight
Astronomical Twilight
Moon
Length of Visible Light
Length of Day
Tomorrow will be .
, % of the Moon is Illuminated

Today's Extremes

State Highs State Lows

Community

WunderPhotos

Upload Photos

1,956,651 photos uploaded!

WunderBlog® & News

Nearby

Air Quality

  Air Quality AQ Index Pollutant
Not available.

Snow Depth

Station Depth Elevation

Earthquake Activity

City Distance Mag. Time & Date
Minimum magnitude displayed is 2.5.

Coastal Water Temperatures

Place Temperature

Stations

Nearby Weather Stations

Station Location Temp. Windchill Dew Point Humidity Wind Precip. Elev Updated Type
                   

Watches & Warnings

There are currently no watches in effect.